Time;durP1;ratioP1;P1;durP2;ratioP2;P2;SDS_P1;SDS_P2;PMS_P1;PMS_P2;Temp;Humidity;BMP_temperature;BMP_pressure;BME280_temperature;BME280_humidity;BME280_pressure;Samples;Min_cycle;Max_cycle;Signal;HPM_P1;HPM_P2
2022/12/07 00:01:10;;;;;;;8.30;5.70;;;4.00;99.90;;;;;;4993414;28;20245;-29
2022/12/07 00:03:37;;;;;;;10.47;5.93;;;4.00;99.90;;;;;;4984762;28;20172;-30
2022/12/07 00:06:06;;;;;;;7.33;5.70;;;4.00;99.90;;;;;;5012729;28;20203;-29
2022/12/07 00:08:33;;;;;;;8.93;5.50;;;4.00;99.90;;;;;;5012831;28;20196;-30
2022/12/07 00:11:07;;;;;;;7.50;5.97;;;4.00;99.90;;;;;;5012883;28;20184;-28
2022/12/07 00:13:35;;;;;;;8.60;5.80;;;4.00;99.90;;;;;;4996259;28;20175;-30
2022/12/07 00:16:06;;;;;;;9.00;6.07;;;4.00;99.90;;;;;;4996156;28;20183;-29
2022/12/07 00:18:32;;;;;;;8.27;5.70;;;4.00;99.90;;;;;;4977880;28;20307;-30
2022/12/07 00:21:07;;;;;;;9.63;6.47;;;4.00;99.90;;;;;;4992916;28;20274;-29
2022/12/07 00:23:33;;;;;;;8.83;6.13;;;4.00;99.90;;;;;;4992910;28;20184;-29
2022/12/07 00:26:11;;;;;;;8.40;5.80;;;4.00;99.90;;;;;;5002596;28;20181;-29
2022/12/07 00:28:38;;;;;;;8.67;5.83;;;4.00;99.90;;;;;;4995863;28;20191;-29
2022/12/07 00:31:06;;;;;;;10.40;6.17;;;4.00;99.90;;;;;;4996281;28;20255;-30
2022/12/07 00:33:34;;;;;;;8.43;5.77;;;4.00;99.90;;;;;;5009929;28;20177;-30
2022/12/07 00:36:00;;;;;;;8.10;5.53;;;4.00;99.90;;;;;;5011713;28;20182;-30
2022/12/07 00:38:29;;;;;;;7.30;5.20;;;4.00;99.90;;;;;;4995496;28;20286;-30
2022/12/07 00:41:01;;;;;;;8.03;5.60;;;4.00;99.90;;;;;;4995657;28;20186;-29
2022/12/07 00:43:27;;;;;;;6.87;5.73;;;4.00;99.90;;;;;;5012024;28;20195;-29
2022/12/07 00:45:53;;;;;;;7.33;5.83;;;4.00;99.90;;;;;;4998665;28;20184;-29
2022/12/07 00:48:20;;;;;;;8.57;5.37;;;4.00;99.90;;;;;;5009342;28;20293;-28
2022/12/07 00:50:46;;;;;;;9.10;5.57;;;4.00;99.90;;;;;;5011943;28;20190;-29
2022/12/07 00:53:12;;;;;;;8.23;5.70;;;4.00;99.90;;;;;;4995677;28;20179;-29
2022/12/07 00:55:38;;;;;;;6.90;5.00;;;4.00;99.90;;;;;;5012338;28;20240;-29
2022/12/07 00:58:04;;;;;;;7.23;5.23;;;4.00;99.90;;;;;;4995432;28;20199;-31
2022/12/07 01:01:10;;;;;;;7.17;5.30;;;3.90;99.90;;;;;;4992472;28;20231;-29
2022/12/07 01:03:37;;;;;;;8.20;5.47;;;4.00;99.90;;;;;;5010043;23;20164;-36
2022/12/07 01:06:04;;;;;;;7.83;5.33;;;3.90;99.90;;;;;;5014437;28;20197;-34
2022/12/07 01:08:30;;;;;;;7.73;5.90;;;3.90;99.90;;;;;;4997442;28;20182;-32
2022/12/07 01:11:19;;;;;;;7.30;5.27;;;3.90;99.90;;;;;;5031109;28;20174;-35
2022/12/07 01:13:45;;;;;;;7.40;5.33;;;3.90;99.90;;;;;;5013727;28;20186;-34
2022/12/07 01:16:14;;;;;;;8.43;5.53;;;3.90;99.90;;;;;;4993619;28;20183;-34
2022/12/07 01:18:40;;;;;;;6.63;5.47;;;3.90;99.90;;;;;;4978125;28;20181;-36
2022/12/07 01:21:12;;;;;;;6.33;5.13;;;3.90;99.90;;;;;;4978741;28;20176;-34
2022/12/07 01:23:38;;;;;;;9.13;5.43;;;3.90;99.90;;;;;;4993953;28;20196;-34
2022/12/07 01:26:07;;;;;;;7.10;5.77;;;3.90;99.90;;;;;;4992286;28;20182;-34
2022/12/07 01:28:33;;;;;;;7.70;5.57;;;3.90;99.90;;;;;;4997110;28;20179;-35
2022/12/07 01:31:10;;;;;;;8.03;5.57;;;3.80;99.90;;;;;;5033066;28;20193;-39
2022/12/07 01:33:37;;;;;;;6.77;5.30;;;3.80;99.90;;;;;;5014707;28;20269;-34
2022/12/07 01:36:17;;;;;;;8.50;5.63;;;3.80;99.90;;;;;;5013348;28;20214;-34
2022/12/07 01:38:44;;;;;;;7.63;5.53;;;3.80;99.90;;;;;;4997535;28;20190;-34
2022/12/07 01:41:11;;;;;;;7.70;5.50;;;3.80;99.90;;;;;;4993663;28;20179;-34
2022/12/07 01:43:57;;;;;;;6.87;5.73;;;3.80;99.90;;;;;;5011394;28;20187;-34
2022/12/07 01:46:22;;;;;;;8.00;5.40;;;3.90;99.90;;;;;;4996149;28;20218;-33
2022/12/07 01:48:48;;;;;;;6.27;5.13;;;3.80;99.90;;;;;;5013217;28;20252;-34
2022/12/07 01:51:15;;;;;;;7.33;5.33;;;3.80;99.90;;;;;;4993139;28;20183;-35
2022/12/07 01:53:45;;;;;;;7.10;5.30;;;3.90;99.90;;;;;;4977287;28;20211;-34
2022/12/07 01:56:16;;;;;;;6.83;5.73;;;3.90;99.90;;;;;;4995589;28;20183;-35
2022/12/07 01:58:43;;;;;;;7.83;5.67;;;3.90;99.90;;;;;;5013027;28;20179;-36
2022/12/07 02:01:09;;;;;;;9.13;5.87;;;3.90;99.90;;;;;;5013041;28;20187;-35
2022/12/07 02:03:41;;;;;;;7.47;5.57;;;3.90;99.90;;;;;;5031257;28;20191;-37
2022/12/07 02:06:10;;;;;;;9.03;5.57;;;3.90;99.90;;;;;;5014848;28;20174;-40
2022/12/07 02:08:36;;;;;;;9.33;6.20;;;3.90;99.90;;;;;;5017201;28;20202;-35
2022/12/07 02:11:03;;;;;;;8.67;5.90;;;3.90;99.90;;;;;;5018593;28;20210;-39
2022/12/07 02:13:35;;;;;;;7.20;5.43;;;3.90;99.90;;;;;;5002542;28;20185;-37
2022/12/07 02:16:34;;;;;;;7.47;5.63;;;3.80;99.90;;;;;;5019171;28;20236;-37
2022/12/07 02:19:25;;;;;;;8.50;5.50;;;3.80;99.90;;;;;;4983816;28;20248;-38
2022/12/07 02:22:08;;;;;;;9.60;6.30;;;3.80;99.90;;;;;;5000123;28;20182;-36
2022/12/07 02:24:57;;;;;;;7.97;6.00;;;3.80;99.90;;;;;;4983601;28;20219;-39
2022/12/07 02:27:49;;;;;;;9.53;6.13;;;3.80;99.90;;;;;;5001481;28;20175;-33
2022/12/07 02:30:20;;;;;;;6.97;5.37;;;3.80;99.90;;;;;;5012441;28;20218;-33
2022/12/07 02:33:08;;;;;;;6.50;5.30;;;3.80;99.90;;;;;;5018823;28;20179;-35
2022/12/07 02:35:45;;;;;;;7.53;5.33;;;3.80;99.90;;;;;;5002948;28;20207;-43
2022/12/07 02:38:34;;;;;;;8.37;5.70;;;3.80;99.90;;;;;;4993037;28;20210;-37
2022/12/07 02:41:21;;;;;;;8.47;6.10;;;3.70;99.90;;;;;;4983515;28;20254;-41
2022/12/07 02:44:07;;;;;;;9.83;6.17;;;3.70;99.90;;;;;;5013751;28;20316;-38
2022/12/07 02:46:42;;;;;;;11.17;7.03;;;3.70;99.90;;;;;;5035269;28;20175;-38
2022/12/07 02:49:09;;;;;;;9.60;6.70;;;3.70;99.90;;;;;;5001388;28;20206;-39
2022/12/07 02:51:41;;;;;;;10.87;7.33;;;3.60;99.90;;;;;;4982765;28;20179;-39
2022/12/07 02:54:18;;;;;;;8.87;6.00;;;3.50;99.90;;;;;;4999217;28;20206;-39
2022/12/07 02:56:44;;;;;;;8.20;4.80;;;3.40;99.90;;;;;;5001374;28;20190;-38
2022/12/07 02:59:41;;;;;;;6.73;5.17;;;3.20;99.90;;;;;;5011133;28;20202;-40
2022/12/07 03:02:26;;;;;;;7.83;5.87;;;3.10;99.90;;;;;;5014817;28;20237;-39
2022/12/07 03:05:06;;;;;;;7.87;5.57;;;2.90;99.90;;;;;;5016900;28;20214;-41
2022/12/07 03:08:01;;;;;;;6.77;5.53;;;2.90;99.90;;;;;;4999345;28;20266;-37
2022/12/07 03:10:51;;;;;;;9.23;6.50;;;2.80;99.90;;;;;;5000353;28;20179;-37
2022/12/07 03:13:21;;;;;;;8.87;6.30;;;2.80;99.90;;;;;;5015872;28;20189;-32
2022/12/07 03:15:57;;;;;;;6.20;4.83;;;2.70;99.90;;;;;;5016197;28;20183;-36
2022/12/07 03:18:25;;;;;;;6.07;4.00;;;2.70;99.90;;;;;;5015183;28;20194;-33
2022/12/07 03:20:55;;;;;;;7.47;5.30;;;2.70;99.90;;;;;;4999663;28;20186;-35
2022/12/07 03:23:23;;;;;;;6.27;4.60;;;2.70;99.90;;;;;;5015465;28;20187;-34
2022/12/07 03:25:55;;;;;;;7.13;4.87;;;2.70;99.90;;;;;;4999361;28;20217;-34
2022/12/07 03:28:23;;;;;;;6.30;4.67;;;2.70;99.90;;;;;;5015554;28;20178;-35
2022/12/07 03:30:58;;;;;;;7.20;5.10;;;2.70;99.90;;;;;;5016296;28;20187;-38
2022/12/07 03:33:32;;;;;;;7.37;4.70;;;2.80;99.90;;;;;;4988829;28;20186;-36
2022/12/07 03:36:17;;;;;;;7.53;5.23;;;2.80;99.90;;;;;;4979720;28;20278;-35
2022/12/07 03:38:47;;;;;;;7.30;5.47;;;2.80;99.90;;;;;;5008931;28;20186;-35
2022/12/07 03:41:25;;;;;;;8.97;6.30;;;2.90;99.90;;;;;;4999353;28;20174;-32
2022/12/07 03:43:53;;;;;;;7.73;5.83;;;2.90;99.90;;;;;;4998764;28;20198;-35
2022/12/07 03:46:31;;;;;;;8.53;6.23;;;2.90;99.90;;;;;;5014971;28;20178;-35
2022/12/07 03:49:10;;;;;;;9.20;6.57;;;2.80;99.90;;;;;;5006352;28;20270;-34
2022/12/07 03:51:42;;;;;;;8.13;5.93;;;2.80;99.90;;;;;;4979436;28;20183;-32
2022/12/07 03:54:30;;;;;;;8.97;5.60;;;2.80;99.90;;;;;;5030345;28;20233;-41
2022/12/07 03:56:58;;;;;;;9.50;6.20;;;2.80;99.90;;;;;;5015351;28;20210;-35
2022/12/07 03:59:26;;;;;;;9.23;6.03;;;2.80;99.90;;;;;;5032959;28;20178;-33
2022/12/07 04:01:54;;;;;;;8.27;5.77;;;2.70;99.90;;;;;;5003725;28;20187;-36
2022/12/07 04:04:21;;;;;;;6.93;5.07;;;2.70;99.90;;;;;;4997226;28;20210;-33
2022/12/07 04:06:47;;;;;;;7.87;5.70;;;2.80;99.90;;;;;;4988361;28;20206;-33
2022/12/07 04:09:14;;;;;;;6.97;5.40;;;2.70;99.90;;;;;;4979051;28;20187;-31
2022/12/07 04:11:40;;;;;;;7.67;5.47;;;2.80;99.90;;;;;;4987711;28;20265;-32
2022/12/07 04:14:18;;;;;;;9.20;6.53;;;2.80;99.90;;;;;;4998271;28;20217;-35
2022/12/07 04:16:50;;;;;;;8.67;6.30;;;2.70;99.90;;;;;;4998299;28;20260;-32
2022/12/07 04:19:18;;;;;;;7.07;5.33;;;2.70;99.90;;;;;;4999055;28;20241;-34
2022/12/07 04:21:44;;;;;;;6.90;5.13;;;2.70;99.90;;;;;;5032401;28;20274;-37
2022/12/07 04:24:12;;;;;;;8.37;6.23;;;2.80;99.90;;;;;;4998502;28;20216;-33
2022/12/07 04:26:38;;;;;;;8.17;6.20;;;2.80;99.90;;;;;;5032803;28;20175;-34
2022/12/07 04:29:03;;;;;;;8.27;6.23;;;2.80;99.90;;;;;;5014736;28;20189;-39
2022/12/07 04:31:29;;;;;;;7.73;5.40;;;2.80;99.90;;;;;;5014357;28;20194;-34
2022/12/07 04:33:55;;;;;;;8.47;5.93;;;2.80;99.90;;;;;;5013960;28;20234;-34
2022/12/07 04:36:21;;;;;;;8.20;6.20;;;2.80;99.90;;;;;;4997588;28;20201;-35
2022/12/07 04:38:47;;;;;;;9.33;5.80;;;2.80;99.90;;;;;;5013799;28;20183;-31
2022/12/07 04:41:13;;;;;;;9.87;6.83;;;2.80;99.90;;;;;;5030675;28;20228;-35
2022/12/07 04:43:39;;;;;;;11.60;7.80;;;2.80;99.90;;;;;;5013501;28;20282;-35
2022/12/07 04:46:05;;;;;;;15.10;8.70;;;2.70;99.90;;;;;;5014307;28;20253;-34
2022/12/07 04:48:31;;;;;;;20.13;9.40;;;2.80;99.90;;;;;;5013967;28;20228;-34
2022/12/07 04:50:57;;;;;;;15.43;8.57;;;2.80;99.90;;;;;;4997812;28;20207;-35
2022/12/07 04:53:23;;;;;;;9.97;6.60;;;2.80;99.90;;;;;;4997308;28;20233;-31
2022/12/07 04:55:49;;;;;;;8.70;6.57;;;2.80;99.90;;;;;;4998764;28;20178;-32
2022/12/07 04:58:15;;;;;;;9.67;6.97;;;2.70;99.90;;;;;;4998944;28;20203;-34
2022/12/07 05:00:41;;;;;;;10.47;6.67;;;2.70;99.90;;;;;;5015929;28;20189;-34
2022/12/07 05:03:07;;;;;;;10.80;6.97;;;2.70;99.90;;;;;;4997713;28;20191;-34
2022/12/07 05:05:33;;;;;;;8.47;6.20;;;2.70;99.90;;;;;;5031744;28;20249;-37
2022/12/07 05:07:59;;;;;;;10.13;7.17;;;2.70;99.90;;;;;;5014398;28;20206;-40
2022/12/07 05:10:25;;;;;;;11.13;7.90;;;2.70;99.90;;;;;;4997785;28;20174;-40
2022/12/07 05:12:50;;;;;;;14.37;9.17;;;2.70;99.90;;;;;;5007831;28;20179;-34
2022/12/07 05:15:16;;;;;;;20.53;12.03;;;2.70;99.90;;;;;;4994169;28;20199;-34
2022/12/07 05:17:42;;;;;;;16.37;10.93;;;2.60;99.90;;;;;;5013417;28;20195;-37
2022/12/07 05:20:09;;;;;;;15.43;9.77;;;2.60;99.90;;;;;;4998121;28;20575;-33
2022/12/07 05:22:35;;;;;;;11.23;8.30;;;2.60;99.90;;;;;;4996974;28;20183;-34
2022/12/07 05:25:01;;;;;;;10.20;7.37;;;2.60;99.90;;;;;;5031439;28;20214;-32
2022/12/07 05:27:27;;;;;;;11.70;7.20;;;2.60;99.90;;;;;;5013150;28;20228;-34
2022/12/07 05:29:53;;;;;;;9.13;6.70;;;2.60;99.90;;;;;;5013397;28;20244;-34
2022/12/07 05:32:18;;;;;;;9.33;6.63;;;2.50;99.90;;;;;;4997081;28;20170;-34
2022/12/07 05:34:44;;;;;;;10.20;6.60;;;2.50;99.90;;;;;;5031044;28;20259;-33
2022/12/07 05:37:10;;;;;;;11.77;7.93;;;2.50;99.90;;;;;;5030846;28;20183;-33
2022/12/07 05:39:37;;;;;;;11.93;7.67;;;2.40;99.90;;;;;;5031157;28;20224;-37
2022/12/07 05:42:12;;;;;;;11.60;7.47;;;2.40;99.90;;;;;;5013419;28;20273;-33
2022/12/07 05:44:44;;;;;;;10.10;7.03;;;2.30;99.90;;;;;;5013636;28;20209;-34
2022/12/07 05:47:11;;;;;;;10.67;7.33;;;2.30;99.90;;;;;;4996595;28;20561;-32
2022/12/07 05:49:37;;;;;;;10.33;6.63;;;2.30;99.90;;;;;;4996789;28;20277;-38
2022/12/07 05:52:03;;;;;;;10.90;6.90;;;2.30;99.90;;;;;;4997445;28;20225;-34
2022/12/07 05:54:29;;;;;;;10.20;7.47;;;2.20;99.90;;;;;;5030656;28;20224;-33
2022/12/07 05:56:55;;;;;;;9.77;7.37;;;2.20;99.90;;;;;;4996965;28;20179;-32
2022/12/07 05:59:22;;;;;;;13.57;9.10;;;2.20;99.90;;;;;;4996893;28;20237;-32
2022/12/07 06:01:58;;;;;;;17.87;11.57;;;2.10;99.90;;;;;;4997643;28;20702;-37
2022/12/07 06:04:25;;;;;;;17.23;10.70;;;2.10;99.90;;;;;;5012607;28;20630;-35
2022/12/07 06:06:51;;;;;;;14.10;8.73;;;2.10;99.90;;;;;;5013789;28;20179;-38
2022/12/07 06:09:18;;;;;;;12.80;9.07;;;2.10;99.90;;;;;;4997324;28;20236;-38
2022/12/07 06:14:28;;;;;;;12.60;9.13;;;2.00;99.90;;;;;;5021840;28;20202;-40
2022/12/07 06:16:54;;;;;;;10.27;7.60;;;2.00;99.90;;;;;;4999481;28;20193;-37
2022/12/07 06:19:21;;;;;;;11.50;7.37;;;1.90;99.90;;;;;;5031725;28;20185;-40
2022/12/07 06:21:46;;;;;;;10.57;7.53;;;1.80;99.90;;;;;;5028492;28;20186;-33
2022/12/07 06:24:14;;;;;;;12.80;8.00;;;1.80;99.90;;;;;;5030437;28;20202;-34
2022/12/07 06:26:40;;;;;;;15.27;10.63;;;1.80;99.90;;;;;;4996241;28;20225;-34
2022/12/07 06:29:06;;;;;;;17.53;12.80;;;1.80;99.90;;;;;;4996650;28;20186;-34
2022/12/07 06:31:32;;;;;;;11.23;8.27;;;1.70;99.90;;;;;;4995275;28;20179;-34
2022/12/07 06:34:03;;;;;;;11.50;8.53;;;1.60;99.90;;;;;;4993597;28;20194;-34
2022/12/07 06:36:29;;;;;;;13.37;8.70;;;1.40;99.90;;;;;;5012816;28;20178;-34
2022/12/07 06:38:55;;;;;;;13.67;8.93;;;1.40;99.90;;;;;;5012793;28;20241;-34
2022/12/07 06:41:21;;;;;;;11.57;8.17;;;1.40;99.90;;;;;;4996207;28;20182;-34
2022/12/07 06:43:48;;;;;;;15.03;8.50;;;1.30;99.90;;;;;;5002409;28;20210;-34
2022/12/07 06:46:16;;;;;;;12.13;8.23;;;1.40;99.90;;;;;;4996394;28;20179;-34
2022/12/07 06:48:43;;;;;;;12.20;8.27;;;1.30;99.90;;;;;;5011062;28;20289;-34
2022/12/07 06:51:10;;;;;;;12.17;7.60;;;1.40;99.90;;;;;;4994336;28;20175;-34
2022/12/07 06:53:36;;;;;;;11.70;7.93;;;1.40;99.90;;;;;;5009855;28;20225;-34
2022/12/07 06:56:04;;;;;;;12.10;7.90;;;1.30;99.90;;;;;;4990355;28;20599;-34
2022/12/07 06:58:31;;;;;;;11.63;7.63;;;1.30;99.90;;;;;;5000338;28;20181;-34
2022/12/07 07:00:56;;;;;;;13.23;8.97;;;1.30;99.90;;;;;;5014879;28;20216;-34
2022/12/07 07:03:22;;;;;;;11.27;7.50;;;1.40;99.90;;;;;;4987417;28;20199;-34
2022/12/07 07:05:48;;;;;;;12.97;8.13;;;1.30;99.90;;;;;;4988105;28;20236;-33
2022/12/07 07:08:15;;;;;;;13.37;8.77;;;1.30;99.90;;;;;;5000658;28;20187;-33
2022/12/07 07:10:41;;;;;;;15.47;9.20;;;1.30;99.90;;;;;;4996493;28;20186;-34
2022/12/07 07:13:07;;;;;;;10.37;7.63;;;1.30;99.90;;;;;;4998561;28;20185;-34
2022/12/07 07:15:34;;;;;;;11.83;8.07;;;1.30;99.90;;;;;;4999555;28;20217;-33
2022/12/07 07:18:00;;;;;;;12.67;8.33;;;1.30;99.90;;;;;;5012980;28;20239;-32
2022/12/07 07:20:26;;;;;;;14.20;8.60;;;1.30;99.90;;;;;;5015898;28;20240;-32
2022/12/07 07:22:55;;;;;;;11.53;7.93;;;1.30;99.90;;;;;;5015119;28;20193;-34
2022/12/07 07:25:21;;;;;;;11.53;8.03;;;1.30;99.90;;;;;;5015715;28;20209;-32
2022/12/07 07:27:47;;;;;;;12.77;9.00;;;1.40;99.90;;;;;;4998763;28;20185;-36
2022/12/07 07:30:13;;;;;;;14.57;9.33;;;1.50;99.90;;;;;;4999397;28;20213;-32
2022/12/07 07:32:39;;;;;;;14.33;8.70;;;1.50;99.90;;;;;;5015644;28;20204;-33
2022/12/07 07:35:06;;;;;;;13.03;8.93;;;1.60;99.90;;;;;;4999334;28;20202;-32
2022/12/07 07:37:32;;;;;;;13.73;9.03;;;1.70;99.90;;;;;;4998528;28;20182;-33
2022/12/07 07:39:57;;;;;;;14.33;9.57;;;1.70;99.90;;;;;;5015358;28;20233;-33
2022/12/07 07:42:23;;;;;;;14.87;10.23;;;1.80;99.90;;;;;;5015388;28;20195;-33
2022/12/07 07:44:49;;;;;;;15.90;10.17;;;1.90;99.90;;;;;;5015064;28;20241;-34
2022/12/07 07:47:15;;;;;;;13.40;9.30;;;1.90;99.90;;;;;;4995207;28;20273;-34
2022/12/07 07:49:41;;;;;;;13.60;8.97;;;2.00;99.90;;;;;;5012417;28;20202;-34
2022/12/07 07:52:07;;;;;;;14.03;10.07;;;2.00;99.90;;;;;;5018889;28;20631;-34
2022/12/07 07:54:32;;;;;;;15.87;10.30;;;2.00;99.90;;;;;;5015570;28;20268;-34
2022/12/07 07:56:58;;;;;;;15.20;10.73;;;2.00;99.90;;;;;;4995448;28;20187;-34
2022/12/07 07:59:25;;;;;;;17.60;10.10;;;2.10;99.90;;;;;;5015256;28;20181;-34
2022/12/07 08:01:51;;;;;;;15.00;10.30;;;2.10;99.90;;;;;;4998869;28;20219;-32
2022/12/07 08:04:16;;;;;;;17.27;10.57;;;2.10;99.90;;;;;;5014556;28;20238;-34
2022/12/07 08:06:42;;;;;;;14.97;10.13;;;2.20;99.90;;;;;;4998739;28;20189;-38
2022/12/07 08:09:09;;;;;;;12.83;9.17;;;2.20;99.90;;;;;;5034756;28;20259;-35
2022/12/07 08:11:36;;;;;;;14.17;10.37;;;2.20;99.90;;;;;;5000008;28;20228;-39
2022/12/07 08:14:02;;;;;;;14.77;9.67;;;2.20;99.90;;;;;;5001693;28;20201;-40
2022/12/07 08:16:28;;;;;;;14.53;9.63;;;2.20;99.90;;;;;;5035463;28;20178;-35
2022/12/07 08:18:54;;;;;;;15.10;10.10;;;2.20;99.90;;;;;;5002293;28;20179;-43
2022/12/07 08:21:20;;;;;;;13.53;9.77;;;2.30;99.90;;;;;;5000766;28;20181;-34
2022/12/07 08:23:46;;;;;;;15.20;9.73;;;2.30;99.90;;;;;;4998390;28;20249;-34
2022/12/07 08:26:14;;;;;;;14.33;9.07;;;2.30;99.90;;;;;;5014517;28;20182;-33
2022/12/07 08:28:42;;;;;;;12.67;8.47;;;2.40;99.90;;;;;;5014325;28;20195;-34
2022/12/07 08:31:14;;;;;;;12.27;9.20;;;2.40;99.90;;;;;;5035547;28;20171;-41
2022/12/07 08:33:40;;;;;;;14.77;10.30;;;2.30;99.90;;;;;;4998069;28;20207;-35
2022/12/07 08:36:08;;;;;;;17.77;10.37;;;2.40;99.90;;;;;;4998878;28;20183;-34
2022/12/07 08:38:35;;;;;;;20.33;12.93;;;2.50;99.90;;;;;;4998155;28;20212;-31
2022/12/07 08:41:02;;;;;;;15.73;10.87;;;2.50;99.90;;;;;;5031796;28;20248;-31
2022/12/07 08:43:28;;;;;;;16.80;11.17;;;2.50;99.90;;;;;;4997874;28;20181;-32
2022/12/07 08:46:03;;;;;;;18.00;12.27;;;2.60;99.90;;;;;;4997808;28;20218;-36
2022/12/07 08:48:30;;;;;;;30.17;18.60;;;2.60;99.90;;;;;;5013937;28;20177;-34
2022/12/07 08:50:56;;;;;;;18.00;12.33;;;2.70;99.90;;;;;;5029210;28;20175;-34
2022/12/07 08:53:22;;;;;;;11.93;9.30;;;2.70;99.90;;;;;;4994474;28;20183;-34
2022/12/07 08:55:48;;;;;;;13.67;8.77;;;2.70;99.90;;;;;;5013824;28;20178;-34
2022/12/07 08:58:14;;;;;;;12.97;8.60;;;2.80;99.90;;;;;;4997205;28;20202;-33
2022/12/07 09:00:40;;;;;;;13.10;9.00;;;2.80;99.90;;;;;;4997556;28;20198;-34
2022/12/07 09:03:06;;;;;;;12.87;8.97;;;2.90;99.90;;;;;;5005848;28;20187;-37
2022/12/07 09:05:34;;;;;;;12.97;9.17;;;2.90;99.90;;;;;;5032613;28;20225;-40
2022/12/07 09:08:01;;;;;;;11.43;7.93;;;3.00;99.90;;;;;;4992677;28;20172;-34
2022/12/07 09:10:28;;;;;;;12.33;8.93;;;3.00;99.90;;;;;;4978131;28;20176;-34
2022/12/07 09:12:54;;;;;;;13.20;8.40;;;3.10;99.90;;;;;;4977929;28;20227;-34
2022/12/07 09:15:20;;;;;;;14.07;8.67;;;3.10;99.90;;;;;;4991226;28;20694;-34
2022/12/07 09:17:46;;;;;;;14.20;9.60;;;3.10;99.90;;;;;;5012358;28;20190;-34
2022/12/07 09:20:12;;;;;;;14.40;9.77;;;3.20;99.90;;;;;;4996992;28;20179;-33
2022/12/07 09:22:38;;;;;;;15.30;10.67;;;3.30;99.90;;;;;;4990723;28;20187;-39
2022/12/07 09:25:04;;;;;;;15.47;11.10;;;3.30;99.90;;;;;;4978306;28;20225;-37
2022/12/07 09:27:30;;;;;;;16.33;10.53;;;3.30;99.90;;;;;;4994255;28;20175;-38
2022/12/07 09:29:56;;;;;;;15.30;10.03;;;3.30;99.90;;;;;;5011645;28;20179;-40
2022/12/07 09:32:22;;;;;;;15.93;10.60;;;3.30;99.90;;;;;;5013832;28;20183;-40
2022/12/07 09:34:48;;;;;;;16.73;10.27;;;3.40;99.90;;;;;;5012226;28;20229;-31
2022/12/07 09:37:14;;;;;;;15.43;10.13;;;3.40;99.90;;;;;;5002654;28;20191;-34
2022/12/07 09:39:41;;;;;;;14.43;9.80;;;3.50;99.90;;;;;;5030283;28;20182;-34
2022/12/07 09:42:07;;;;;;;15.73;9.80;;;3.50;99.90;;;;;;5012252;28;20187;-34
2022/12/07 09:44:35;;;;;;;15.30;8.73;;;3.50;99.90;;;;;;4997893;28;20245;-32
2022/12/07 09:47:02;;;;;;;12.57;8.57;;;3.50;99.90;;;;;;4988104;28;20191;-36
2022/12/07 09:49:31;;;;;;;11.93;8.03;;;3.60;99.90;;;;;;4989551;28;20246;-34
2022/12/07 09:52:09;;;;;;;11.87;7.97;;;3.60;99.90;;;;;;5013691;28;20182;-33
2022/12/07 09:54:43;;;;;;;10.00;7.07;;;3.60;99.90;;;;;;5013297;28;20198;-33
2022/12/07 09:57:12;;;;;;;10.20;6.77;;;3.60;99.90;;;;;;4996920;28;20263;-33
2022/12/07 09:59:40;;;;;;;10.00;6.53;;;3.60;99.90;;;;;;5025724;28;20309;-32
2022/12/07 10:02:30;;;;;;;10.53;7.10;;;3.60;99.90;;;;;;5028050;28;20185;-32
2022/12/07 10:04:57;;;;;;;10.60;7.33;;;3.70;99.90;;;;;;5031475;28;20206;-39
2022/12/07 10:07:24;;;;;;;13.43;8.53;;;3.70;99.90;;;;;;5030864;28;20179;-41
2022/12/07 10:09:49;;;;;;;11.63;7.70;;;3.70;99.90;;;;;;4998035;28;20300;-35
2022/12/07 10:12:15;;;;;;;11.80;7.53;;;3.70;99.90;;;;;;4998417;28;20280;-38
2022/12/07 10:14:58;;;;;;;12.27;7.57;;;3.80;99.90;;;;;;5014055;28;20350;-39
2022/12/07 10:17:40;;;;;;;11.63;7.90;;;3.90;99.90;;;;;;4981077;28;20278;-40
2022/12/07 10:20:22;;;;;;;9.77;7.27;;;3.80;99.90;;;;;;5004036;28;20175;-34
2022/12/07 10:23:04;;;;;;;11.83;7.90;;;3.90;99.90;;;;;;4996640;28;20186;-34
2022/12/07 10:25:33;;;;;;;10.13;6.87;;;3.90;99.90;;;;;;4996967;28;20223;-34
2022/12/07 10:28:08;;;;;;;11.13;7.60;;;4.00;99.90;;;;;;4977175;28;20175;-34
2022/12/07 10:30:56;;;;;;;8.67;6.47;;;4.00;99.90;;;;;;5012730;28;20236;-34
2022/12/07 10:33:34;;;;;;;8.87;6.07;;;4.10;99.90;;;;;;5000454;28;20183;-34
2022/12/07 10:36:16;;;;;;;8.27;6.10;;;4.10;99.90;;;;;;5015664;28;20232;-33
2022/12/07 10:38:46;;;;;;;9.67;6.67;;;4.10;99.90;;;;;;5000334;28;20194;-34
2022/12/07 10:41:12;;;;;;;9.03;6.30;;;4.10;99.90;;;;;;5000421;28;20187;-34
2022/12/07 10:43:47;;;;;;;8.67;6.87;;;4.20;99.90;;;;;;5016439;28;20240;-34
2022/12/07 10:46:50;;;;;;;11.63;6.93;;;4.20;99.90;;;;;;4999655;28;20305;-34
2022/12/07 10:49:49;;;;;;;11.43;6.30;;;4.30;99.90;;;;;;4999356;28;20210;-34
2022/12/07 10:52:33;;;;;;;8.80;6.00;;;4.30;99.90;;;;;;4999032;28;20183;-34
2022/12/07 10:55:15;;;;;;;8.20;6.20;;;4.30;99.90;;;;;;5007519;28;20336;-34
2022/12/07 10:57:47;;;;;;;8.73;5.80;;;4.40;99.90;;;;;;4992542;28;20182;-34
2022/12/07 11:00:25;;;;;;;8.90;6.00;;;4.40;99.90;;;;;;5014428;28;20205;-33
2022/12/07 11:02:57;;;;;;;9.20;5.97;;;4.50;99.90;;;;;;5015872;28;20187;-32
2022/12/07 11:05:53;;;;;;;12.13;6.07;;;4.50;99.90;;;;;;4999525;28;20212;-33
2022/12/07 11:08:40;;;;;;;8.13;6.20;;;4.60;99.90;;;;;;5032251;28;20180;-32
2022/12/07 11:11:28;;;;;;;9.63;5.87;;;4.50;99.90;;;;;;5006531;28;20186;-34
2022/12/07 11:14:08;;;;;;;8.10;5.63;;;4.60;99.90;;;;;;4996520;28;20213;-34
2022/12/07 11:16:49;;;;;;;8.30;5.30;;;4.60;99.90;;;;;;5030868;28;20258;-34
2022/12/07 11:19:22;;;;;;;9.80;6.50;;;4.60;99.90;;;;;;5004689;28;20180;-34
2022/12/07 11:21:50;;;;;;;10.17;6.40;;;4.60;99.90;;;;;;5013695;28;20206;-35
2022/12/07 11:24:19;;;;;;;8.83;6.07;;;4.60;99.90;;;;;;4998792;28;20215;-35
2022/12/07 11:27:23;;;;;;;8.20;6.47;;;4.70;99.90;;;;;;4998122;28;20182;-35
2022/12/07 11:30:07;;;;;;;7.47;5.67;;;4.70;99.90;;;;;;5015421;28;20265;-34
2022/12/07 11:32:57;;;;;;;7.47;5.80;;;4.70;99.90;;;;;;5010251;28;20199;-40
2022/12/07 11:35:54;;;;;;;10.03;6.67;;;4.70;99.90;;;;;;4983536;28;20276;-43
2022/12/07 11:38:40;;;;;;;7.90;5.53;;;4.70;99.90;;;;;;4995905;28;20189;-35
2022/12/07 11:41:12;;;;;;;8.17;5.43;;;4.70;99.90;;;;;;4962897;28;20194;-34
2022/12/07 11:43:54;;;;;;;8.70;5.77;;;4.80;99.90;;;;;;5013585;28;20242;-35
2022/12/07 11:46:24;;;;;;;8.07;5.93;;;4.90;99.90;;;;;;5014613;28;20191;-35
2022/12/07 11:49:03;;;;;;;6.83;5.57;;;4.90;99.90;;;;;;4998703;28;20191;-35
2022/12/07 11:51:34;;;;;;;8.03;6.20;;;4.90;99.90;;;;;;4984535;28;20232;-34
2022/12/07 11:54:12;;;;;;;8.83;5.80;;;4.90;99.90;;;;;;5015275;28;20274;-34
2022/12/07 11:56:38;;;;;;;10.53;6.13;;;4.90;99.90;;;;;;4999427;28;20284;-34
2022/12/07 11:59:12;;;;;;;9.00;6.20;;;4.90;99.90;;;;;;5011755;28;20426;-34
2022/12/07 12:02:01;;;;;;;8.53;5.47;;;4.90;99.90;;;;;;5013895;28;20208;-34
2022/12/07 12:05:13;;;;;;;9.60;6.10;;;4.90;99.90;;;;;;5019869;28;20689;-34
2022/12/07 12:07:41;;;;;;;7.17;5.47;;;5.00;99.90;;;;;;5028801;28;20620;-35
2022/12/07 12:10:37;;;;;;;14.30;6.23;;;5.00;99.90;;;;;;5013774;28;20645;-34
2022/12/07 12:13:15;;;;;;;12.27;6.90;;;5.00;99.90;;;;;;4991396;28;20219;-35
2022/12/07 12:15:51;;;;;;;7.13;5.67;;;5.00;99.90;;;;;;5007299;28;20180;-35
2022/12/07 12:18:46;;;;;;;9.13;5.93;;;5.00;99.90;;;;;;4988318;28;20183;-34
2022/12/07 12:21:19;;;;;;;8.23;5.60;;;5.10;99.90;;;;;;4991261;28;20251;-34
2022/12/07 12:24:13;;;;;;;7.87;5.50;;;5.10;99.90;;;;;;5009667;28;20215;-34
2022/12/07 12:26:53;;;;;;;8.83;5.93;;;5.10;99.90;;;;;;5026238;28;20179;-34
2022/12/07 12:29:33;;;;;;;12.10;6.47;;;5.10;99.90;;;;;;4987039;28;20206;-36
2022/12/07 12:32:42;;;;;;;9.43;6.53;;;5.10;99.90;;;;;;4994996;28;20250;-35
2022/12/07 12:35:31;;;;;;;10.10;6.57;;;5.20;99.90;;;;;;4996112;28;20231;-34
2022/12/07 12:38:19;;;;;;;9.60;6.70;;;5.20;99.90;;;;;;5010871;28;20223;-35
2022/12/07 12:40:45;;;;;;;7.67;5.57;;;5.20;99.90;;;;;;4999869;28;20193;-35
2022/12/07 12:43:43;;;;;;;9.83;6.63;;;5.20;99.90;;;;;;5005920;28;20179;-34
2022/12/07 12:46:34;;;;;;;8.30;5.50;;;5.20;99.90;;;;;;5020571;28;20195;-34
2022/12/07 12:49:15;;;;;;;6.17;5.17;;;5.20;99.90;;;;;;5004509;28;20214;-34
2022/12/07 12:52:04;;;;;;;8.13;6.23;;;5.20;99.90;;;;;;4987941;28;20262;-35
2022/12/07 12:54:33;;;;;;;6.50;5.17;;;5.30;99.90;;;;;;4989416;28;20256;-35
2022/12/07 12:57:04;;;;;;;7.93;5.70;;;5.30;99.90;;;;;;5007960;28;20274;-35
2022/12/07 12:59:30;;;;;;;9.73;5.63;;;5.30;99.90;;;;;;4997788;28;20180;-35
2022/12/07 13:02:21;;;;;;;8.17;5.37;;;5.30;99.90;;;;;;5014453;28;20180;-35
2022/12/07 13:05:01;;;;;;;10.53;5.57;;;5.40;99.90;;;;;;4988382;23;20778;-41
2022/12/07 13:07:51;;;;;;;11.87;5.20;;;5.40;99.90;;;;;;4957084;28;20271;-41
2022/12/07 13:10:29;;;;;;;7.97;5.47;;;5.40;99.90;;;;;;4992102;28;20257;-38
2022/12/07 13:13:13;;;;;;;8.10;5.30;;;5.50;99.90;;;;;;4973098;28;20192;-40
2022/12/07 13:15:41;;;;;;;10.20;5.80;;;5.50;99.90;;;;;;4961472;28;20704;-40
2022/12/07 13:18:32;;;;;;;10.93;6.67;;;5.50;99.90;;;;;;4971938;28;20186;-41